createdAt,value
2024-05-09T00:00:40.420Z,5.78
2024-05-09T00:03:09.695Z,4.97
2024-05-09T00:05:38.112Z,5.18
2024-05-09T00:08:06.085Z,5.43
2024-05-09T00:10:38.103Z,4.70
2024-05-09T00:13:07.101Z,6.13
2024-05-09T00:15:35.209Z,5.18
2024-05-09T00:18:03.296Z,6.30
2024-05-09T00:20:37.653Z,4.90
2024-05-09T00:23:08.041Z,4.93
2024-05-09T00:25:38.270Z,5.55
2024-05-09T00:28:05.929Z,5.68
2024-05-09T00:30:35.779Z,5.40
2024-05-09T00:33:05.144Z,4.88
2024-05-09T00:35:33.108Z,5.55
2024-05-09T00:38:00.319Z,6.03
2024-05-09T00:40:37.634Z,5.35
2024-05-09T00:43:10.402Z,4.57
2024-05-09T00:45:37.569Z,4.85
2024-05-09T00:48:08.595Z,4.57
2024-05-09T00:50:39.756Z,5.30
2024-05-09T00:53:08.425Z,5.30
2024-05-09T00:55:36.637Z,5.72
2024-05-09T00:58:05.432Z,5.10
2024-05-09T01:00:39.347Z,4.82
2024-05-09T01:03:08.705Z,6.20
2024-05-09T01:05:39.203Z,4.82
2024-05-09T01:08:07.350Z,5.88
2024-05-09T01:10:35.587Z,5.55
2024-05-09T01:13:03.729Z,5.82
2024-05-09T01:15:30.781Z,6.07
2024-05-09T01:18:01.505Z,7.22
2024-05-09T01:20:39.124Z,6.20
2024-05-09T01:23:14.382Z,5.72
2024-05-09T01:25:43.350Z,6.00
2024-05-09T01:28:10.530Z,6.60
2024-05-09T01:30:38.233Z,5.88
2024-05-09T01:33:08.111Z,6.13
2024-05-09T01:35:36.806Z,5.25
2024-05-09T01:38:04.276Z,6.15
2024-05-09T01:40:38.399Z,5.85
2024-05-09T01:43:07.104Z,5.47
2024-05-09T01:45:34.212Z,6.05
2024-05-09T01:48:01.472Z,6.50
2024-05-09T01:50:37.944Z,7.07
2024-05-09T01:53:08.416Z,5.90
2024-05-09T01:55:38.049Z,6.75
2024-05-09T01:58:05.129Z,5.40
2024-05-09T02:00:38.871Z,5.80
2024-05-09T02:03:10.034Z,6.45
2024-05-09T02:05:37.879Z,7.57
2024-05-09T02:08:05.696Z,5.53
2024-05-09T02:10:33.504Z,7.28
2024-05-09T02:13:03.316Z,7.47
2024-05-09T02:15:30.147Z,7.63
2024-05-09T02:17:57.296Z,4.97
2024-05-09T02:20:33.107Z,7.10
2024-05-09T02:23:04.255Z,5.85
2024-05-09T02:25:31.789Z,6.10
2024-05-09T02:27:58.727Z,5.90
2024-05-09T02:32:58.180Z,5.85
2024-05-09T02:35:26.456Z,6.30
2024-05-09T02:37:53.549Z,6.47
2024-05-09T02:40:28.297Z,6.82
2024-05-09T02:43:00.770Z,6.25
2024-05-09T02:45:30.242Z,6.65
2024-05-09T02:47:57.399Z,5.95
2024-05-09T02:50:33.120Z,5.80
2024-05-09T02:53:04.877Z,6.93
2024-05-09T02:55:31.721Z,5.82
2024-05-09T02:57:58.550Z,6.78
2024-05-09T03:00:34.463Z,7.43
2024-05-09T03:03:10.342Z,7.18
2024-05-09T03:05:39.784Z,7.68
2024-05-09T03:08:07.476Z,5.97
2024-05-09T03:10:36.792Z,6.03
2024-05-09T03:13:06.529Z,5.88
2024-05-09T03:15:33.377Z,6.75
2024-05-09T03:18:00.899Z,6.85
2024-05-09T03:20:34.557Z,5.72
2024-05-09T03:23:03.282Z,6.43
2024-05-09T03:25:30.313Z,6.80
2024-05-09T03:27:57.209Z,5.90
2024-05-09T03:30:36.001Z,6.50
2024-05-09T03:33:10.079Z,6.35
2024-05-09T03:35:39.820Z,6.50
2024-05-09T03:38:06.660Z,6.22
2024-05-09T03:40:33.477Z,6.45
2024-05-09T03:43:00.272Z,7.40
2024-05-09T03:45:27.038Z,6.80
2024-05-09T03:47:54.002Z,6.65
2024-05-09T03:50:29.528Z,6.03
2024-05-09T03:53:03.372Z,6.07
2024-05-09T03:55:31.008Z,6.63
2024-05-09T03:57:57.904Z,5.97
2024-05-09T04:00:31.486Z,6.50
2024-05-09T04:03:05.894Z,5.20
2024-05-09T04:05:34.700Z,5.85
2024-05-09T04:08:04.990Z,6.47
2024-05-09T04:10:34.196Z,6.35
2024-05-09T04:13:02.677Z,6.20
2024-05-09T04:15:29.768Z,6.82
2024-05-09T04:17:56.835Z,5.65
2024-05-09T04:20:33.643Z,6.05
2024-05-09T04:23:10.748Z,7.15
2024-05-09T04:25:38.019Z,6.47
2024-05-09T04:28:05.739Z,5.22
2024-05-09T04:30:38.157Z,5.05
2024-05-09T04:33:09.558Z,6.50
2024-05-09T04:35:38.942Z,6.40
2024-05-09T04:38:08.759Z,6.93
2024-05-09T04:40:37.117Z,6.13
2024-05-09T04:43:05.578Z,5.07
2024-05-09T04:45:32.879Z,5.20
2024-05-09T04:48:00.211Z,5.85
2024-05-09T04:50:35.897Z,5.25
2024-05-09T04:53:06.233Z,5.32
2024-05-09T04:55:36.369Z,6.13
2024-05-09T04:58:08.082Z,6.43
2024-05-09T05:00:37.383Z,6.40
2024-05-09T05:03:07.385Z,6.05
2024-05-09T05:05:37.888Z,5.68
2024-05-09T05:08:11.654Z,5.60
2024-05-09T05:10:41.396Z,6.43
2024-05-09T05:13:20.207Z,8.32
2024-05-09T05:15:52.150Z,5.97
2024-05-09T05:18:19.562Z,6.13
2024-05-09T05:20:47.105Z,6.90
2024-05-09T05:23:15.920Z,6.53
2024-05-09T05:25:50.059Z,6.35
2024-05-09T05:28:17.614Z,6.65
2024-05-09T05:30:45.310Z,7.93
2024-05-09T05:33:14.404Z,7.00
2024-05-09T05:35:42.067Z,6.75
2024-05-09T05:38:10.160Z,9.13
2024-05-09T05:40:38.838Z,7.47
2024-05-09T05:43:15.793Z,6.72
2024-05-09T05:45:42.608Z,8.10
2024-05-09T05:48:10.049Z,7.95
2024-05-09T05:50:38.415Z,7.80
2024-05-09T05:53:06.721Z,9.63
2024-05-09T05:55:33.944Z,8.60
2024-05-09T05:58:01.333Z,9.15
2024-05-09T06:00:38.137Z,9.00
2024-05-09T06:03:07.578Z,8.23
2024-05-09T06:05:35.757Z,7.72
2024-05-09T06:08:02.782Z,8.48
2024-05-09T06:10:37.453Z,7.75
2024-05-09T06:13:06.817Z,9.07
2024-05-09T06:15:36.293Z,9.98
2024-05-09T06:18:05.765Z,7.53
2024-05-09T06:20:36.452Z,8.18
2024-05-09T06:23:05.628Z,7.68
2024-05-09T06:25:32.748Z,9.50
2024-05-09T06:28:00.051Z,7.30
2024-05-09T06:30:36.560Z,8.80
2024-05-09T06:33:12.482Z,9.43
2024-05-09T06:35:41.589Z,7.53
2024-05-09T06:38:09.459Z,8.73
2024-05-09T06:40:40.227Z,8.73
2024-05-09T06:43:11.198Z,7.70
2024-05-09T06:45:39.900Z,7.15
2024-05-09T06:48:10.473Z,8.20
2024-05-09T06:50:39.234Z,8.30
2024-05-09T06:53:07.471Z,8.30
2024-05-09T06:55:34.651Z,8.27
2024-05-09T06:58:01.537Z,7.65
2024-05-09T07:00:35.715Z,7.68
2024-05-09T07:03:12.440Z,6.43
2024-05-09T07:05:40.790Z,6.85
2024-05-09T07:08:08.258Z,7.65
2024-05-09T07:10:36.485Z,6.50
2024-05-09T07:13:08.217Z,6.40
2024-05-09T07:15:34.981Z,7.13
2024-05-09T07:18:01.939Z,6.80
2024-05-09T07:20:34.722Z,8.13
2024-05-09T07:23:02.296Z,7.30
2024-05-09T07:25:29.500Z,5.32
2024-05-09T07:27:56.375Z,5.40
2024-05-09T07:30:27.933Z,6.63
2024-05-09T07:33:00.528Z,5.90
2024-05-09T07:35:27.791Z,5.75
2024-05-09T07:37:57.457Z,7.90
2024-05-09T07:40:32.831Z,5.45
2024-05-09T07:43:03.582Z,7.22
2024-05-09T07:45:47.399Z,6.57
2024-05-09T07:53:39.165Z,6.55
2024-05-09T07:56:09.986Z,7.43
2024-05-09T07:58:37.416Z,8.82
2024-05-09T08:01:04.926Z,6.25
2024-05-09T08:03:32.006Z,7.03
2024-05-09T08:05:58.861Z,5.97
2024-05-09T08:08:28.308Z,7.35
2024-05-09T08:10:55.195Z,7.72
2024-05-09T08:13:22.175Z,6.90
2024-05-09T08:15:49.280Z,5.20
2024-05-09T08:18:16.321Z,5.90
2024-05-09T08:20:43.210Z,6.85
2024-05-09T08:23:11.225Z,5.13
2024-05-09T08:25:40.735Z,6.65
2024-05-09T08:28:08.202Z,6.72
2024-05-09T08:30:37.356Z,6.05
2024-05-09T08:33:06.860Z,5.55
2024-05-09T08:35:35.059Z,5.50
2024-05-09T08:38:02.591Z,5.93
2024-05-09T08:40:35.424Z,5.70
2024-05-09T08:43:09.778Z,6.97
2024-05-09T08:45:42.405Z,5.85
2024-05-09T08:48:12.036Z,4.85
2024-05-09T08:50:41.154Z,6.18
2024-05-09T08:53:08.858Z,6.53
2024-05-09T08:55:40.418Z,6.03
2024-05-09T08:58:15.917Z,6.95
2024-05-09T09:00:44.212Z,5.90
2024-05-09T09:03:15.696Z,5.47
2024-05-09T09:05:48.024Z,5.85
2024-05-09T09:08:15.708Z,6.15
2024-05-09T09:10:43.459Z,4.93
2024-05-09T09:13:13.221Z,5.47
2024-05-09T09:15:46.995Z,5.70
2024-05-09T09:18:14.987Z,5.30
2024-05-09T09:20:41.976Z,4.70
2024-05-09T09:23:09.087Z,6.07
2024-05-09T09:25:39.358Z,6.22
2024-05-09T09:28:07.644Z,5.65
2024-05-09T09:30:39.381Z,5.38
2024-05-09T09:33:06.851Z,5.55
2024-05-09T09:35:35.877Z,7.70
2024-05-09T09:38:04.508Z,6.32
2024-05-09T09:40:37.327Z,7.72
2024-05-09T09:43:13.178Z,6.15
2024-05-09T09:45:44.160Z,6.18
2024-05-09T09:48:14.705Z,5.47
2024-05-09T09:50:42.023Z,5.97
2024-05-09T09:53:10.391Z,6.72
2024-05-09T09:55:39.795Z,6.03
2024-05-09T09:58:09.735Z,5.25
2024-05-09T10:00:39.347Z,5.20
2024-05-09T10:03:09.077Z,6.38
2024-05-09T10:05:36.750Z,6.22
2024-05-09T10:08:06.397Z,6.53
2024-05-09T10:10:34.871Z,6.18
2024-05-09T10:13:03.642Z,5.05
2024-05-09T10:15:31.411Z,5.43
2024-05-09T10:18:05.591Z,5.85
2024-05-09T10:20:42.944Z,5.53
2024-05-09T10:23:23.947Z,5.93
2024-05-09T10:25:58.113Z,4.80
2024-05-09T10:28:28.114Z,4.93
2024-05-09T10:31:08.240Z,5.68
2024-05-09T10:33:37.091Z,6.03
2024-05-09T10:36:11.039Z,5.50
2024-05-09T10:38:39.874Z,5.30
2024-05-09T10:41:06.850Z,5.57
2024-05-09T10:43:34.014Z,5.47
2024-05-09T10:46:02.023Z,5.22
2024-05-09T10:48:29.111Z,5.43
2024-05-09T10:50:56.166Z,5.80
2024-05-09T10:53:25.619Z,5.70
2024-05-09T10:55:56.609Z,6.60
2024-05-09T10:58:23.474Z,5.60
2024-05-09T11:00:50.876Z,7.95
2024-05-09T11:03:18.473Z,6.53
2024-05-09T11:05:47.566Z,6.13
2024-05-09T11:08:14.821Z,5.68
2024-05-09T11:10:45.140Z,7.65
2024-05-09T11:13:12.106Z,6.00
2024-05-09T11:15:39.887Z,7.00
2024-05-09T11:18:07.089Z,8.52
2024-05-09T11:20:35.569Z,8.63
2024-05-09T11:23:05.008Z,8.32
2024-05-09T11:25:33.271Z,7.90
2024-05-09T11:28:03.186Z,6.60
2024-05-09T11:30:34.697Z,6.80
2024-05-09T11:33:01.759Z,8.02
2024-05-09T11:35:29.459Z,6.13
2024-05-09T11:37:56.366Z,6.88
2024-05-09T11:40:26.032Z,7.07
2024-05-09T11:42:59.382Z,8.02
2024-05-09T11:45:28.970Z,7.25
2024-05-09T11:47:56.049Z,6.68
2024-05-09T11:50:29.682Z,6.53
2024-05-09T11:52:59.773Z,6.10
2024-05-09T11:55:28.232Z,6.75
2024-05-09T11:57:55.913Z,7.18
2024-05-09T12:00:33.690Z,6.60
2024-05-09T12:03:06.659Z,7.28
2024-05-09T12:05:34.379Z,5.93
2024-05-09T12:08:01.831Z,7.10
2024-05-09T12:10:33.575Z,7.93
2024-05-09T12:13:03.141Z,8.27
2024-05-09T12:15:31.110Z,6.40
2024-05-09T12:18:00.223Z,7.47
2024-05-09T12:20:37.156Z,6.22
2024-05-09T12:23:06.710Z,7.03
2024-05-09T12:25:33.718Z,6.60
2024-05-09T12:28:01.014Z,6.00
2024-05-09T12:30:36.094Z,6.95
2024-05-09T12:33:06.694Z,6.32
2024-05-09T12:35:36.261Z,6.13
2024-05-09T12:38:03.666Z,6.13
2024-05-09T12:40:36.615Z,7.03
2024-05-09T12:43:06.516Z,6.38
2024-05-09T12:45:33.677Z,6.03
2024-05-09T12:48:01.060Z,5.43
2024-05-09T12:50:32.783Z,7.80
2024-05-09T12:53:04.698Z,5.60
2024-05-09T12:55:40.344Z,7.28
2024-05-09T12:58:15.431Z,5.93
2024-05-09T13:00:42.552Z,5.72
2024-05-09T13:03:09.601Z,5.32
2024-05-09T13:05:36.627Z,4.80
2024-05-09T13:08:07.191Z,6.22
2024-05-09T13:10:34.991Z,6.53
2024-05-09T13:13:02.534Z,6.10
2024-05-09T13:15:30.222Z,5.47
2024-05-09T13:18:00.333Z,5.97
2024-05-09T13:20:33.391Z,5.90
2024-05-09T13:23:06.720Z,6.55
2024-05-09T13:25:35.094Z,5.60
2024-05-09T13:28:02.535Z,5.80
2024-05-09T13:30:38.480Z,6.07
2024-05-09T13:33:08.952Z,6.40
2024-05-09T13:35:36.319Z,5.63
2024-05-09T13:38:05.905Z,4.70
2024-05-09T13:40:35.302Z,4.88
2024-05-09T13:43:04.376Z,4.75
2024-05-09T13:45:31.670Z,5.15
2024-05-09T13:47:59.158Z,5.32
2024-05-09T13:50:33.896Z,4.43
2024-05-09T13:53:07.255Z,6.53
2024-05-09T13:55:37.383Z,4.68
2024-05-09T13:58:04.707Z,4.60
2024-05-09T14:00:42.408Z,5.30
2024-05-09T14:03:14.791Z,5.43
2024-05-09T14:05:42.163Z,5.28
2024-05-09T14:08:13.685Z,4.60
2024-05-09T14:10:44.482Z,5.00
2024-05-09T14:15:38.834Z,5.18
2024-05-09T14:18:07.987Z,4.80
2024-05-09T14:20:35.497Z,4.28
2024-05-09T14:23:02.252Z,3.70
2024-05-09T14:25:36.537Z,4.68
2024-05-09T14:28:06.456Z,4.25
2024-05-09T14:30:37.333Z,5.00
2024-05-09T14:33:07.093Z,5.60
2024-05-09T14:35:34.894Z,5.32
2024-05-09T14:38:01.933Z,5.13
2024-05-09T14:40:40.558Z,4.97
2024-05-09T14:43:11.281Z,5.45
2024-05-09T14:45:38.650Z,5.05
2024-05-09T14:48:06.986Z,4.78
2024-05-09T14:50:37.561Z,5.28
2024-05-09T14:53:07.367Z,4.80
2024-05-09T14:55:39.832Z,5.38
2024-05-09T14:58:08.603Z,5.32
2024-05-09T15:00:40.138Z,4.18
2024-05-09T15:03:09.209Z,5.65
2024-05-09T15:05:36.067Z,4.95
2024-05-09T15:08:05.989Z,4.55
2024-05-09T15:10:35.764Z,3.95
2024-05-09T15:13:08.708Z,4.95
2024-05-09T15:15:37.617Z,6.43
2024-05-09T15:18:05.586Z,5.43
2024-05-09T15:20:36.173Z,5.97
2024-05-09T15:23:06.550Z,4.93
2024-05-09T15:25:34.820Z,4.47
2024-05-09T15:28:01.899Z,4.97
2024-05-09T15:30:33.521Z,5.13
2024-05-09T15:33:04.165Z,3.55
2024-05-09T15:35:31.441Z,4.72
2024-05-09T15:37:58.466Z,5.03
2024-05-09T15:40:35.528Z,5.38
2024-05-09T15:43:07.292Z,4.50
2024-05-09T15:45:37.307Z,5.30
2024-05-09T15:48:05.590Z,5.68
2024-05-09T15:50:38.196Z,5.75
2024-05-09T15:53:08.694Z,6.03
2024-05-09T15:55:36.442Z,5.38
2024-05-09T15:58:04.310Z,5.15
2024-05-09T16:00:37.793Z,5.68
2024-05-09T16:03:12.625Z,5.43
2024-05-09T16:05:41.540Z,5.88
2024-05-09T16:08:08.866Z,6.32
2024-05-09T16:10:36.733Z,6.05
2024-05-09T16:13:04.918Z,6.28
2024-05-09T16:15:32.100Z,5.93
2024-05-09T16:17:59.480Z,6.85
2024-05-09T16:20:37.431Z,4.97
2024-05-09T16:23:08.057Z,6.50
2024-05-09T16:25:35.293Z,5.32
2024-05-09T16:28:03.801Z,6.40
2024-05-09T16:30:35.386Z,6.32
2024-05-09T16:33:04.012Z,6.40
2024-05-09T16:35:35.163Z,8.75
2024-05-09T16:38:03.103Z,7.75
2024-05-09T16:40:37.567Z,6.25
2024-05-09T16:43:07.932Z,6.22
2024-05-09T16:45:35.372Z,5.40
2024-05-09T16:48:02.643Z,6.35
2024-05-09T16:50:33.977Z,5.82
2024-05-09T16:53:06.692Z,5.57
2024-05-09T16:55:35.752Z,5.82
2024-05-09T16:58:03.634Z,5.78
2024-05-09T17:00:39.213Z,5.53
2024-05-09T17:03:11.345Z,4.85
2024-05-09T17:05:39.431Z,5.63
2024-05-09T17:08:09.394Z,5.47
2024-05-09T17:10:36.821Z,6.78
2024-05-09T17:13:06.087Z,5.78
2024-05-09T17:15:34.402Z,6.07
2024-05-09T17:18:02.042Z,6.55
2024-05-09T17:20:33.667Z,8.23
2024-05-09T17:23:03.577Z,7.43
2024-05-09T17:25:33.308Z,8.45
2024-05-09T17:28:06.267Z,5.82
2024-05-09T17:30:36.794Z,7.25
2024-05-09T17:33:07.371Z,8.68
2024-05-09T17:35:35.460Z,15.80
2024-05-09T17:38:02.593Z,14.43
2024-05-09T17:40:33.812Z,9.32
2024-05-09T17:43:07.042Z,8.57
2024-05-09T17:45:37.651Z,8.18
2024-05-09T17:48:05.391Z,7.55
2024-05-09T17:50:35.919Z,8.43
2024-05-09T17:53:05.263Z,6.65
2024-05-09T17:55:32.721Z,6.72
2024-05-09T17:57:59.865Z,5.50
2024-05-09T18:00:37.390Z,5.40
2024-05-09T18:03:08.401Z,5.32
2024-05-09T18:05:36.923Z,5.70
2024-05-09T18:08:05.336Z,6.15
2024-05-09T18:10:36.839Z,5.82
2024-05-09T18:13:06.895Z,5.93
2024-05-09T18:15:37.263Z,5.65
2024-05-09T18:18:05.455Z,6.68
2024-05-09T18:20:41.422Z,8.07
2024-05-09T18:23:13.371Z,6.95
2024-05-09T18:25:40.905Z,7.78
2024-05-09T18:28:08.238Z,7.35
2024-05-09T18:30:38.180Z,9.00
2024-05-09T18:33:07.799Z,8.43
2024-05-09T18:35:35.583Z,6.85
2024-05-09T18:38:03.050Z,6.63
2024-05-09T18:40:34.508Z,7.05
2024-05-09T18:43:06.712Z,7.82
2024-05-09T18:48:07.716Z,6.40
2024-05-09T18:50:38.572Z,5.53
2024-05-09T18:53:08.488Z,6.65
2024-05-09T18:55:35.626Z,8.10
2024-05-09T18:58:03.531Z,6.63
2024-05-09T19:00:35.352Z,6.93
2024-05-09T19:03:11.354Z,8.68
2024-05-09T19:05:40.977Z,7.95
2024-05-09T19:08:08.675Z,8.05
2024-05-09T19:10:38.470Z,6.63
2024-05-09T19:13:10.394Z,7.07
2024-05-09T19:15:40.248Z,8.70
2024-05-09T19:18:11.787Z,6.60
2024-05-09T19:23:07.265Z,5.18
2024-05-09T19:25:35.047Z,6.63
2024-05-09T19:28:02.294Z,7.35
2024-05-09T19:30:37.366Z,7.35
2024-05-09T19:33:14.596Z,7.13
2024-05-09T19:35:42.026Z,8.88
2024-05-09T19:38:08.985Z,7.40
2024-05-09T19:40:36.473Z,7.25
2024-05-09T19:43:05.111Z,7.88
2024-05-09T19:45:33.915Z,7.70
2024-05-09T19:48:02.426Z,8.77
2024-05-09T19:50:39.986Z,7.72
2024-05-09T19:53:11.431Z,7.43
2024-05-09T19:55:38.789Z,7.22
2024-05-09T19:58:07.307Z,7.68
2024-05-09T20:00:36.947Z,7.97
2024-05-09T20:03:06.569Z,7.85
2024-05-09T20:05:37.164Z,7.72
2024-05-09T20:08:05.056Z,7.60
2024-05-09T20:10:34.279Z,8.25
2024-05-09T20:13:03.588Z,8.43
2024-05-09T20:15:31.345Z,8.50
2024-05-09T20:17:58.378Z,9.02
2024-05-09T20:20:33.672Z,7.25
2024-05-09T20:23:08.149Z,8.35
2024-05-09T20:25:35.104Z,7.68
2024-05-09T20:28:02.074Z,8.52
2024-05-09T20:30:32.638Z,8.23
2024-05-09T20:33:04.104Z,8.10
2024-05-09T20:35:32.808Z,7.82
2024-05-09T20:38:01.379Z,7.97
2024-05-09T20:40:35.562Z,8.15
2024-05-09T20:43:06.026Z,8.27
2024-05-09T20:45:33.665Z,7.47
2024-05-09T20:48:01.084Z,8.82
2024-05-09T20:50:36.542Z,8.27
2024-05-09T20:53:08.936Z,7.82
2024-05-09T20:55:38.905Z,8.90
2024-05-09T20:58:06.025Z,8.95
2024-05-09T21:00:40.164Z,8.23
2024-05-09T21:05:39.015Z,6.70
2024-05-09T21:08:06.861Z,6.57
2024-05-09T21:10:34.833Z,8.77
2024-05-09T21:13:05.660Z,7.72
2024-05-09T21:18:00.234Z,6.38
2024-05-09T21:20:31.900Z,7.43
2024-05-09T21:23:00.623Z,6.60
2024-05-09T21:25:27.741Z,7.15
2024-05-09T21:27:54.873Z,8.23
2024-05-09T21:32:54.272Z,7.35
2024-05-09T21:35:21.371Z,7.88
2024-05-09T21:37:48.365Z,8.27
2024-05-09T21:40:24.311Z,7.13
2024-05-09T21:42:58.341Z,7.80
2024-05-09T21:45:27.857Z,7.85
2024-05-09T21:47:54.975Z,9.13
2024-05-09T21:50:28.713Z,7.45
2024-05-09T21:53:03.831Z,8.90
2024-05-09T21:55:30.704Z,7.72
2024-05-09T21:57:57.662Z,7.82
2024-05-09T22:00:34.736Z,7.63
2024-05-09T22:03:05.124Z,8.10
2024-05-09T22:05:32.604Z,7.97
2024-05-09T22:07:59.923Z,7.32
2024-05-09T22:10:33.110Z,7.50
2024-05-09T22:13:03.444Z,8.30
2024-05-09T22:15:35.648Z,8.35
2024-05-09T22:18:03.694Z,7.55
2024-05-09T22:20:36.836Z,8.27
2024-05-09T22:23:06.178Z,10.00
2024-05-09T22:25:33.502Z,7.65
2024-05-09T22:28:01.267Z,7.90
2024-05-09T22:33:01.665Z,8.48
2024-05-09T22:35:28.532Z,8.25
2024-05-09T22:37:55.448Z,8.75
2024-05-09T22:40:29.537Z,8.77
2024-05-09T22:43:06.185Z,7.93
2024-05-09T22:45:33.399Z,8.77
2024-05-09T22:48:03.077Z,9.73
2024-05-09T22:50:33.291Z,8.88
2024-05-09T22:53:00.846Z,7.65
2024-05-09T22:55:27.914Z,11.05
2024-05-09T22:57:54.935Z,7.93
2024-05-09T23:00:29.457Z,8.82
2024-05-09T23:02:59.685Z,8.48
2024-05-09T23:05:29.824Z,7.30
2024-05-09T23:07:56.958Z,8.80
2024-05-09T23:10:31.510Z,8.40
2024-05-09T23:13:03.246Z,6.80
2024-05-09T23:15:30.322Z,9.35
2024-05-09T23:17:58.131Z,7.95
2024-05-09T23:20:36.238Z,8.98
2024-05-09T23:23:05.886Z,7.72
2024-05-09T23:25:32.781Z,8.70
2024-05-09T23:27:59.772Z,7.38
2024-05-09T23:30:37.180Z,7.93
2024-05-09T23:33:08.999Z,7.82
2024-05-09T23:35:38.673Z,7.85
2024-05-09T23:38:05.570Z,7.85
2024-05-09T23:43:02.571Z,8.10
2024-05-09T23:45:29.564Z,9.18
2024-05-09T23:47:56.511Z,8.30
2024-05-09T23:50:30.671Z,9.35
2024-05-09T23:53:04.787Z,9.40
2024-05-09T23:55:32.201Z,8.10
2024-05-09T23:57:59.592Z,8.25
